createdAt,value
2023-01-26T00:04:00.157Z,66.50
2023-01-26T00:09:03.556Z,62.40
2023-01-26T00:14:06.151Z,74.40
2023-01-26T00:19:08.852Z,72.10
2023-01-26T00:24:11.548Z,70.90
2023-01-26T00:29:14.176Z,39.80
2023-01-26T00:34:16.760Z,59.40
2023-01-26T00:39:19.398Z,69.60
2023-01-26T00:51:20.025Z,73.20
2023-01-26T00:56:22.828Z,97.00
2023-01-26T01:01:25.408Z,75.80
2023-01-26T01:06:27.977Z,71.50
2023-01-26T01:11:30.644Z,74.10
2023-01-26T01:16:33.365Z,65.50
2023-01-26T01:21:36.395Z,79.00
2023-01-26T01:26:39.713Z,80.20
2023-01-26T01:31:43.338Z,70.70
2023-01-26T01:36:46.221Z,66.80
2023-01-26T01:41:48.812Z,88.50
2023-01-26T01:46:54.390Z,77.70
2023-01-26T01:52:04.650Z,92.50
2023-01-26T01:57:15.500Z,80.40
2023-01-26T02:02:18.482Z,78.00
2023-01-26T02:07:21.429Z,84.50
2023-01-26T02:12:29.344Z,73.80
2023-01-26T02:17:31.996Z,69.50
2023-01-26T02:22:37.500Z,56.60
2023-01-26T02:27:40.373Z,44.70
2023-01-26T02:32:43.001Z,72.20
2023-01-26T02:37:45.697Z,69.70
2023-01-26T02:42:48.345Z,58.80
2023-01-26T02:47:50.985Z,53.40
2023-01-26T02:52:53.587Z,53.80
2023-01-26T02:57:57.611Z,64.10
2023-01-26T03:03:02.225Z,63.90
2023-01-26T03:08:06.112Z,68.40
2023-01-26T03:13:08.986Z,40.80
2023-01-26T03:18:34.562Z,33.00
2023-01-26T03:23:40.148Z,58.20
2023-01-26T03:28:42.725Z,68.70
2023-01-26T03:33:45.316Z,60.90
2023-01-26T03:38:48.016Z,53.40
2023-01-26T03:43:53.529Z,45.90
2023-01-26T03:48:59.026Z,51.30
2023-01-26T03:54:04.553Z,44.20
2023-01-26T03:59:08.419Z,50.30
2023-01-26T04:04:14.214Z,39.70
2023-01-26T04:09:16.926Z,14.20
2023-01-26T04:14:50.834Z,39.40
2023-01-26T04:19:56.505Z,22.50
2023-01-26T04:24:59.295Z,35.80
2023-01-26T04:30:03.570Z,35.00
2023-01-26T04:35:07.178Z,49.60
2023-01-26T04:40:10.869Z,41.10
2023-01-26T04:45:13.670Z,36.40
2023-01-26T04:50:16.351Z,37.90
2023-01-26T04:55:18.950Z,43.10
2023-01-26T05:00:21.688Z,45.20
2023-01-26T05:05:24.381Z,57.60
2023-01-26T05:10:27.041Z,50.40
2023-01-26T05:15:29.616Z,44.70
2023-01-26T05:20:34.842Z,25.50
2023-01-26T05:25:37.503Z,52.60
2023-01-26T05:30:40.520Z,44.60
2023-01-26T05:35:43.177Z,44.80
2023-01-26T05:40:46.020Z,34.30
2023-01-26T05:45:48.762Z,35.30
2023-01-26T05:50:51.545Z,48.20
2023-01-26T05:55:54.237Z,34.40
2023-01-26T06:00:57.411Z,37.00
2023-01-26T06:06:00.476Z,40.50
2023-01-26T06:11:03.390Z,46.50
2023-01-26T06:16:06.345Z,50.90
2023-01-26T06:21:08.958Z,52.30
2023-01-26T06:26:11.777Z,48.40
2023-01-26T06:31:14.607Z,48.80
2023-01-26T06:36:17.399Z,52.30
2023-01-26T06:41:20.036Z,59.70
2023-01-26T06:46:22.818Z,62.30
2023-01-26T06:51:46.734Z,104.00
2023-01-26T06:56:49.349Z,103.10
2023-01-26T07:01:52.041Z,80.00
2023-01-26T07:06:54.679Z,59.10
2023-01-26T07:11:57.255Z,51.90
2023-01-26T07:16:59.861Z,43.90
2023-01-26T07:22:02.750Z,43.40
2023-01-26T07:27:05.455Z,45.90
2023-01-26T07:32:08.058Z,49.40
2023-01-26T07:37:10.650Z,46.20
2023-01-26T07:42:13.229Z,48.80
2023-01-26T07:47:15.968Z,45.90
2023-01-26T07:52:18.657Z,24.20
2023-01-26T07:57:21.241Z,53.20
2023-01-26T08:02:23.832Z,63.50
2023-01-26T08:07:44.824Z,60.70
2023-01-26T08:12:47.425Z,59.10
2023-01-26T08:17:50.016Z,56.00
2023-01-26T08:22:53.877Z,66.70
2023-01-26T08:27:56.655Z,63.40
2023-01-26T08:32:59.264Z,73.80
2023-01-26T08:38:02.176Z,72.30
2023-01-26T08:43:04.862Z,67.30
2023-01-26T08:48:07.481Z,65.20
2023-01-26T08:53:10.559Z,53.70
2023-01-26T08:58:13.367Z,62.00
2023-01-26T09:03:16.066Z,46.50
2023-01-26T09:08:18.687Z,46.20
2023-01-26T09:13:21.447Z,20.70
2023-01-26T09:18:24.073Z,43.20
2023-01-26T09:23:26.693Z,52.80
2023-01-26T09:28:29.397Z,51.60
2023-01-26T09:33:33.011Z,31.60
2023-01-26T09:38:35.848Z,36.20
2023-01-26T09:43:43.542Z,49.70
2023-01-26T09:48:57.222Z,57.10
2023-01-26T09:54:15.863Z,45.40
2023-01-26T09:59:24.277Z,48.40
2023-01-26T10:04:36.325Z,39.50
2023-01-26T10:09:41.237Z,34.50
2023-01-26T10:14:51.319Z,53.60
2023-01-26T10:20:00.323Z,60.10
2023-01-26T10:25:11.413Z,61.20
2023-01-26T10:30:18.928Z,27.50
2023-01-26T10:35:24.905Z,58.30
2023-01-26T10:40:27.536Z,43.80
2023-01-26T10:45:32.601Z,47.60
2023-01-26T10:50:38.467Z,73.50
2023-01-26T10:55:41.437Z,39.70
2023-01-26T11:00:44.071Z,50.30
2023-01-26T11:06:05.990Z,56.80
2023-01-26T11:11:26.417Z,63.10
2023-01-26T11:16:31.600Z,61.40
2023-01-26T11:21:39.158Z,68.60
2023-01-26T11:26:43.715Z,70.40
2023-01-26T11:31:55.126Z,61.20
2023-01-26T11:36:58.778Z,73.30
2023-01-26T11:42:07.170Z,60.10
2023-01-26T11:47:38.712Z,76.30
2023-01-26T11:52:51.045Z,63.20
2023-01-26T11:57:53.585Z,55.40
2023-01-26T12:03:00.933Z,27.50
2023-01-26T12:08:12.559Z,59.80
2023-01-26T12:13:33.454Z,69.30
2023-01-26T12:18:53.018Z,63.80
2023-01-26T12:24:02.246Z,66.70
2023-01-26T12:29:09.878Z,67.20
2023-01-26T12:34:14.004Z,69.70
2023-01-26T12:39:31.467Z,80.30
2023-01-26T12:44:37.016Z,75.70
2023-01-26T12:50:00.895Z,62.60
2023-01-26T12:55:13.291Z,71.60
2023-01-26T13:00:30.194Z,82.80
2023-01-26T13:05:35.469Z,67.10
2023-01-26T13:10:49.422Z,80.00
2023-01-26T13:16:14.816Z,58.20
2023-01-26T13:21:40.599Z,76.70
2023-01-26T13:26:45.411Z,77.50
2023-01-26T13:31:48.059Z,70.20
2023-01-26T13:36:53.079Z,68.30
2023-01-26T13:41:55.853Z,66.50
2023-01-26T13:47:07.864Z,78.10
2023-01-26T13:52:19.092Z,74.80
2023-01-26T13:57:25.611Z,64.30
2023-01-26T14:02:31.432Z,66.40
2023-01-26T14:07:44.311Z,69.50
2023-01-26T14:12:51.610Z,74.80
2023-01-26T14:18:01.290Z,81.30
2023-01-26T14:23:06.838Z,77.00
2023-01-26T14:28:15.812Z,82.70
2023-01-26T14:33:18.634Z,81.10
2023-01-26T14:38:21.744Z,130.30
2023-01-26T14:43:25.526Z,122.20
2023-01-26T14:48:34.980Z,103.10
2023-01-26T14:53:37.804Z,91.60
2023-01-26T14:58:41.379Z,102.20
2023-01-26T15:03:44.001Z,94.30
2023-01-26T15:08:58.429Z,76.80
2023-01-26T15:14:03.619Z,75.10
2023-01-26T15:19:07.821Z,88.20
2023-01-26T15:24:14.849Z,83.70
2023-01-26T15:29:35.005Z,97.60
2023-01-26T15:34:39.083Z,102.20
2023-01-26T15:39:41.767Z,98.50
2023-01-26T15:44:44.395Z,83.30
2023-01-26T15:49:47.112Z,83.10
2023-01-26T15:54:51.705Z,65.30
2023-01-26T15:59:54.330Z,89.70
2023-01-26T16:04:56.914Z,78.70
2023-01-26T16:10:01.087Z,87.70
2023-01-26T16:15:18.120Z,87.50
2023-01-26T16:20:20.797Z,70.70
2023-01-26T16:25:27.293Z,58.90
2023-01-26T16:30:29.892Z,64.20
2023-01-26T16:35:32.563Z,57.50
2023-01-26T16:40:35.252Z,80.90
2023-01-26T16:45:37.956Z,56.80
2023-01-26T16:50:44.574Z,69.80
2023-01-26T16:55:47.205Z,60.30
2023-01-26T17:00:49.899Z,61.20
2023-01-26T17:05:55.851Z,58.30
2023-01-26T17:11:02.543Z,53.60
2023-01-26T17:16:08.567Z,53.10
2023-01-26T17:21:14.806Z,59.50
2023-01-26T17:31:22.886Z,60.90
2023-01-26T17:36:25.509Z,52.20
2023-01-26T17:41:28.645Z,61.20
2023-01-26T17:46:31.282Z,54.30
2023-01-26T17:51:33.856Z,63.20
2023-01-26T17:56:36.458Z,69.80
2023-01-26T18:01:39.233Z,66.90
2023-01-26T18:06:41.897Z,45.40
2023-01-26T18:11:44.587Z,50.20
2023-01-26T18:16:48.412Z,60.30
2023-01-26T18:21:51.281Z,57.50
2023-01-26T18:26:53.928Z,59.20
2023-01-26T18:31:56.570Z,45.80
2023-01-26T18:36:59.371Z,47.40
2023-01-26T18:42:02.042Z,68.00
2023-01-26T18:47:04.881Z,66.10
2023-01-26T18:52:07.538Z,65.70
2023-01-26T18:57:10.190Z,74.20
2023-01-26T19:02:13.809Z,67.40
2023-01-26T19:07:16.558Z,49.20
2023-01-26T19:12:19.131Z,59.70
2023-01-26T19:17:21.830Z,63.70
2023-01-26T19:22:24.463Z,62.80
2023-01-26T19:27:30.388Z,55.20
2023-01-26T19:32:32.982Z,69.10
2023-01-26T19:37:35.571Z,75.70
2023-01-26T19:42:38.223Z,64.70
2023-01-26T19:47:41.666Z,54.50
2023-01-26T19:52:44.295Z,55.30
2023-01-26T19:57:46.908Z,65.10
2023-01-26T20:02:49.589Z,66.20
2023-01-26T20:07:52.854Z,81.60
2023-01-26T20:12:57.615Z,61.90
2023-01-26T20:18:00.198Z,53.70
2023-01-26T20:23:03.004Z,46.90
2023-01-26T20:28:06.252Z,45.90
2023-01-26T20:33:11.147Z,57.70
2023-01-26T20:38:13.737Z,49.70
2023-01-26T20:43:16.399Z,61.60
2023-01-26T20:48:21.415Z,53.70
2023-01-26T20:53:24.165Z,60.10
2023-01-26T20:58:26.754Z,69.10
2023-01-26T21:03:29.353Z,57.90
2023-01-26T21:08:34.604Z,61.40
2023-01-26T21:13:37.878Z,61.70
2023-01-26T21:18:40.913Z,55.30
2023-01-26T21:23:44.158Z,57.40
2023-01-26T21:28:53.717Z,63.20
2023-01-26T21:33:58.515Z,62.20
2023-01-26T21:39:01.783Z,44.20
2023-01-26T21:44:06.962Z,52.10
2023-01-26T21:49:09.858Z,58.10
2023-01-26T21:54:14.011Z,59.80
2023-01-26T21:59:18.146Z,45.60
2023-01-26T22:04:26.010Z,56.40
2023-01-26T22:09:29.874Z,43.30
2023-01-26T22:14:32.500Z,46.80
2023-01-26T22:19:35.099Z,60.60
2023-01-26T22:24:37.694Z,58.00
2023-01-26T22:29:42.698Z,69.90
2023-01-26T22:34:45.360Z,57.00
2023-01-26T22:39:48.959Z,63.40
2023-01-26T22:44:51.634Z,53.60
2023-01-26T22:49:54.223Z,57.50
2023-01-26T22:54:56.845Z,69.30
2023-01-26T22:59:59.492Z,62.40
2023-01-26T23:05:02.116Z,32.50
2023-01-26T23:10:05.370Z,53.00
2023-01-26T23:15:08.569Z,52.40
2023-01-26T23:20:14.152Z,62.70
2023-01-26T23:25:19.895Z,56.40
2023-01-26T23:30:22.536Z,37.10
2023-01-26T23:35:26.627Z,64.00
2023-01-26T23:40:29.658Z,73.20
2023-01-26T23:45:32.869Z,60.30
2023-01-26T23:50:38.068Z,72.50
2023-01-26T23:55:42.601Z,73.10
